Hollenthal, Germany

08:12 PM CET die 21o November, anno 2017 (GMT +0100)
Pünderich | | Change Station

Elev 0 ft 50.04 °N, 7.13 °E | Updated 14 minutes ago

Aequaliter Nubila
Aequaliter Nubila
46.9 °F
Feels Like 47 °F
N
0.6
Ventus Variabilis Ventus from Inter Austrum et Zephyrum
Gusts 2.5 mph

Hodie
High -- | Low -- °F
--% Chance of Precip.
Yesterday
High -- | Low -- °F
Precip. -- in
Pressio 29.94 in
Visibilitas 6.2 milia passuum
Clouds Plerumque Nubila 700 ft
Aequaliter Nubila 1300 ft
Frigus Venti 47 °F
Frigus in quo Ros apparet 47 °F
Umor 99%
Rainfall 0.01 in
Snow Depth Not available.
7:54 AM 4:40 PM
Waxing Crescent, 10% visible
METAR ETAD 211856Z AUTO 23011KT 9999 BKN007 OVC013 06/05 A2994 RMK AO2 BKN V OVC SLPNO T00560049 TSNO $
Pressio 29.94 in
Visibilitas 6.2 milia passuum
Clouds Plerumque Nubila 700 ft
Aequaliter Nubila 1300 ft
Frigus Venti 47 °F
Frigus in quo Ros apparet 47 °F
Umor 99%
Rainfall 0.01 in
Snow Depth Not available.
7:54 AM 4:40 PM
Waxing Crescent, 10% visible
METAR ETAD 211856Z AUTO 23011KT 9999 BKN007 OVC013 06/05 A2994 RMK AO2 BKN V OVC SLPNO T00560049 TSNO $

Get Severe Weather Alerts

Thanks for signing up!

Be on the lookout for a verification email in your inbox.

You'll start receiving the daily forecast at 6 AM.

×

10-Day Weather Forecast

×

Almanac

Astronomy

Nov. 21, 2017 Rise Set
Actual Time
Civil Twilight
Nautical Twilight
Astronomical Twilight
Moon
Length Of Visible Light
Length of Day
Tomorrow will be .
, % of the Moon is Illuminated

Today's Extremes

Country Highs Country Lows

Community

WunderPhotos

Category 6

Welcome to Category 6. This is the collective home for Weather Underground's featured writeups by Dr. Jeff Masters (right), Bob Henson (left), Chris Burt, and other regular contributors.

Nearby

Air Quality

  Air Quality AQ Index Pollutant
Not available.

Snow Depth

Station Depth Elevation

Earthquake Activity

City Distance Mag. Time & Date
Minimum magnitude displayed is 2.5.

Coastal Water Temperatures

Locus Calor

Stations

Nearby Weather Stations

Station Location Temp Frigus Venti Frigus in quo Ros apparet Umor Ventus Precip. Elev Renovata Type